createdAt,value
2017-12-16T00:00:06.234Z,1.50
2017-12-16T00:02:33.669Z,1.50
2017-12-16T00:05:03.078Z,1.50
2017-12-16T00:07:30.653Z,1.50
2017-12-16T00:09:58.090Z,1.40
2017-12-16T00:12:25.532Z,1.40
2017-12-16T00:14:53.025Z,1.30
2017-12-16T00:17:20.797Z,1.30
2017-12-16T00:19:49.008Z,1.20
2017-12-16T00:22:16.513Z,1.20
2017-12-16T00:24:44.117Z,1.20
2017-12-16T00:27:11.587Z,1.20
2017-12-16T00:29:42.081Z,1.20
2017-12-16T00:32:10.298Z,1.10
2017-12-16T00:34:37.782Z,1.10
2017-12-16T00:37:05.247Z,1.10
2017-12-16T00:39:32.686Z,1.10
2017-12-16T00:42:00.274Z,1.00
2017-12-16T00:44:27.738Z,1.00
2017-12-16T00:46:55.177Z,1.00
2017-12-16T00:49:22.696Z,1.00
2017-12-16T00:51:53.992Z,1.00
2017-12-16T00:54:21.434Z,1.00
2017-12-16T00:56:48.909Z,1.00
2017-12-16T00:59:16.341Z,1.00
2017-12-16T01:01:43.777Z,1.00
2017-12-16T01:04:11.288Z,1.00
2017-12-16T01:06:38.755Z,1.00
2017-12-16T01:09:06.318Z,1.00
2017-12-16T01:11:34.527Z,1.00
2017-12-16T01:14:02.082Z,1.00
2017-12-16T01:16:29.538Z,1.00
2017-12-16T01:19:03.169Z,1.00
2017-12-16T01:21:30.602Z,1.00
2017-12-16T01:23:58.199Z,1.00
2017-12-16T01:26:25.646Z,1.00
2017-12-16T01:28:53.134Z,1.00
2017-12-16T01:31:20.569Z,1.00
2017-12-16T01:33:59.861Z,1.10
2017-12-16T01:36:39.326Z,1.10
2017-12-16T01:39:06.930Z,1.10
2017-12-16T01:41:34.360Z,1.10
2017-12-16T01:44:01.849Z,1.10
2017-12-16T01:46:30.176Z,1.10
2017-12-16T01:48:57.629Z,1.10
2017-12-16T01:51:25.237Z,1.10
2017-12-16T01:53:52.701Z,1.10
2017-12-16T01:56:20.917Z,1.10
2017-12-16T01:58:48.445Z,1.10
2017-12-16T02:01:16.685Z,1.10
2017-12-16T02:03:44.123Z,1.10
2017-12-16T02:06:13.548Z,1.10
2017-12-16T02:08:41.041Z,1.20
2017-12-16T02:11:09.265Z,1.20
2017-12-16T02:13:36.811Z,1.10
2017-12-16T02:16:04.289Z,1.20
2017-12-16T02:18:32.989Z,1.20
2017-12-16T02:21:00.425Z,1.20
2017-12-16T02:23:27.881Z,1.20
2017-12-16T02:25:55.326Z,1.20
2017-12-16T02:28:22.787Z,1.20
2017-12-16T02:30:52.221Z,1.20
2017-12-16T02:33:19.857Z,1.20
2017-12-16T02:35:47.300Z,1.30
2017-12-16T02:38:14.724Z,1.30
2017-12-16T02:40:42.957Z,1.30
2017-12-16T02:43:10.441Z,1.30
2017-12-16T02:45:37.868Z,1.30
2017-12-16T02:48:05.462Z,1.30
2017-12-16T02:50:33.001Z,1.30
2017-12-16T02:53:00.461Z,1.30
2017-12-16T02:55:36.926Z,1.30
2017-12-16T02:58:04.356Z,1.30
2017-12-16T03:00:31.817Z,1.30
2017-12-16T03:02:59.253Z,1.40
2017-12-16T03:05:26.712Z,1.40
2017-12-16T03:07:54.148Z,1.40
2017-12-16T03:10:22.509Z,1.40
2017-12-16T03:12:49.944Z,1.30
2017-12-16T03:15:17.405Z,1.40
2017-12-16T03:17:44.849Z,1.40
2017-12-16T03:20:12.316Z,1.40
2017-12-16T03:22:40.737Z,1.40
2017-12-16T03:25:08.945Z,1.40
2017-12-16T03:27:36.468Z,1.40
2017-12-16T03:30:04.664Z,1.40
2017-12-16T03:32:33.592Z,1.40
2017-12-16T03:35:01.024Z,1.40
2017-12-16T03:37:28.489Z,1.40
2017-12-16T03:39:55.949Z,1.40
2017-12-16T03:42:29.473Z,1.40
2017-12-16T03:44:56.936Z,1.40
2017-12-16T03:47:24.379Z,1.40
2017-12-16T03:49:51.817Z,1.40
2017-12-16T03:52:19.604Z,1.40
2017-12-16T03:54:47.061Z,1.40
2017-12-16T03:57:14.497Z,1.40
2017-12-16T03:59:41.993Z,1.40
2017-12-16T04:02:09.428Z,1.40
2017-12-16T04:04:36.873Z,1.40
2017-12-16T04:07:04.466Z,1.40
2017-12-16T04:09:32.304Z,1.40
2017-12-16T04:11:59.743Z,1.40
2017-12-16T04:14:27.176Z,1.40
2017-12-16T04:16:56.424Z,1.40
2017-12-16T04:19:23.896Z,1.40
2017-12-16T04:21:51.341Z,1.40
2017-12-16T04:24:18.956Z,1.40
2017-12-16T04:26:46.392Z,1.40
2017-12-16T04:29:14.599Z,1.40
2017-12-16T04:31:42.084Z,1.40
2017-12-16T04:34:09.522Z,1.40
2017-12-16T04:36:36.948Z,1.40
2017-12-16T04:39:09.216Z,1.30
2017-12-16T04:41:37.414Z,1.30
2017-12-16T04:44:05.004Z,1.30
2017-12-16T04:46:32.437Z,1.30
2017-12-16T04:48:59.905Z,1.30
2017-12-16T04:51:27.332Z,1.30
2017-12-16T04:53:55.538Z,1.30
2017-12-16T04:56:23.424Z,1.30
2017-12-16T04:58:50.854Z,1.30
2017-12-16T05:01:19.056Z,1.40
2017-12-16T05:03:46.612Z,1.40
2017-12-16T05:06:14.052Z,1.40
2017-12-16T05:08:41.487Z,1.40
2017-12-16T05:11:09.709Z,1.40
2017-12-16T05:13:37.146Z,1.40
2017-12-16T05:16:05.584Z,1.40
2017-12-16T05:18:36.436Z,1.40
2017-12-16T05:21:03.864Z,1.40
2017-12-16T05:23:32.783Z,1.40
2017-12-16T05:26:00.973Z,1.40
2017-12-16T05:28:28.457Z,1.40
2017-12-16T05:30:55.908Z,1.40
2017-12-16T05:33:23.370Z,1.40
2017-12-16T05:35:50.800Z,1.40
2017-12-16T05:38:18.260Z,1.50
2017-12-16T05:40:46.148Z,1.50
2017-12-16T05:43:13.624Z,1.50
2017-12-16T05:45:41.056Z,1.50
2017-12-16T05:48:08.520Z,1.50
2017-12-16T05:50:35.956Z,1.50
2017-12-16T05:53:03.412Z,1.60
2017-12-16T05:55:32.759Z,1.60
2017-12-16T05:58:00.285Z,1.60
2017-12-16T06:00:28.482Z,1.70
2017-12-16T06:02:58.401Z,1.60
2017-12-16T06:05:27.821Z,1.70
2017-12-16T06:07:55.247Z,1.70
2017-12-16T06:10:22.873Z,1.70
2017-12-16T06:12:52.036Z,1.80
2017-12-16T06:15:19.871Z,1.80
2017-12-16T06:17:47.304Z,1.80
2017-12-16T06:20:14.741Z,1.80
2017-12-16T06:22:42.969Z,1.80
2017-12-16T06:25:26.261Z,1.80
2017-12-16T06:27:53.698Z,1.90
2017-12-16T06:30:22.545Z,1.90
2017-12-16T06:32:49.981Z,1.90
2017-12-16T06:35:17.416Z,1.90
2017-12-16T06:37:44.876Z,1.90
2017-12-16T06:40:12.337Z,1.90
2017-12-16T06:42:39.774Z,2.00
2017-12-16T06:45:08.311Z,2.00
2017-12-16T06:47:39.689Z,2.00
2017-12-16T06:50:07.121Z,2.00
2017-12-16T06:52:34.620Z,2.00
2017-12-16T06:55:02.821Z,2.00
2017-12-16T06:57:30.248Z,2.00
2017-12-16T07:00:00.735Z,2.00
2017-12-16T07:02:28.186Z,2.00
2017-12-16T07:04:55.624Z,2.00
2017-12-16T07:07:23.113Z,2.00
2017-12-16T07:09:50.555Z,2.00
2017-12-16T07:12:18.988Z,2.00
2017-12-16T07:14:47.258Z,2.10
2017-12-16T07:17:15.904Z,2.10
2017-12-16T07:19:43.349Z,2.10
2017-12-16T07:22:10.784Z,2.10
2017-12-16T07:24:38.245Z,2.10
2017-12-16T07:27:05.720Z,2.10
2017-12-16T07:29:33.152Z,2.10
2017-12-16T07:32:00.597Z,2.20
2017-12-16T07:34:28.961Z,2.20
2017-12-16T07:36:56.425Z,2.20
2017-12-16T07:39:24.021Z,2.20
2017-12-16T07:41:51.458Z,2.20
2017-12-16T07:44:19.664Z,2.20
2017-12-16T07:46:47.171Z,2.20
2017-12-16T07:49:14.675Z,2.30
2017-12-16T07:51:42.100Z,2.30
2017-12-16T07:54:10.300Z,2.30
2017-12-16T07:56:37.804Z,2.30
2017-12-16T07:59:05.252Z,2.30
2017-12-16T08:01:33.196Z,2.30
2017-12-16T08:04:00.636Z,2.30
2017-12-16T08:06:28.084Z,2.30
2017-12-16T08:08:56.296Z,2.30
2017-12-16T08:11:24.085Z,2.40
2017-12-16T08:13:51.568Z,2.40
2017-12-16T08:16:19.970Z,2.40
2017-12-16T08:18:48.309Z,2.40
2017-12-16T08:21:15.750Z,2.50
2017-12-16T08:23:43.193Z,2.50
2017-12-16T08:26:10.673Z,2.50
2017-12-16T08:28:38.112Z,2.50
2017-12-16T08:31:05.560Z,2.50
2017-12-16T08:33:33.137Z,2.50
2017-12-16T08:36:00.583Z,2.50
2017-12-16T08:38:28.023Z,2.50
2017-12-16T08:41:00.541Z,2.50
2017-12-16T08:43:29.604Z,2.50
2017-12-16T08:45:57.184Z,2.50
2017-12-16T08:48:24.624Z,2.60
2017-12-16T08:50:52.832Z,2.60
2017-12-16T08:53:20.342Z,2.60
2017-12-16T08:55:47.772Z,2.60
2017-12-16T08:58:16.053Z,2.60
2017-12-16T09:00:44.304Z,2.60
2017-12-16T09:03:11.824Z,2.60
2017-12-16T09:05:39.279Z,2.60
2017-12-16T09:08:06.745Z,2.70
2017-12-16T09:10:34.186Z,2.70
2017-12-16T09:13:01.745Z,2.80
2017-12-16T09:15:29.187Z,2.80
2017-12-16T09:17:57.413Z,2.80
2017-12-16T09:20:25.000Z,2.80
2017-12-16T09:22:52.447Z,2.80
2017-12-16T09:25:19.897Z,2.80
2017-12-16T09:27:47.364Z,2.80
2017-12-16T09:30:14.808Z,2.80
2017-12-16T09:32:42.249Z,2.80
2017-12-16T09:35:09.850Z,2.90
2017-12-16T09:37:37.345Z,2.90
2017-12-16T09:40:04.780Z,2.90
2017-12-16T09:42:33.017Z,2.90
2017-12-16T09:45:00.461Z,2.90
2017-12-16T09:47:27.921Z,3.00
2017-12-16T09:49:55.366Z,3.00
2017-12-16T09:52:22.887Z,3.10
2017-12-16T09:54:53.109Z,3.10
2017-12-16T09:57:21.312Z,3.10
2017-12-16T09:59:48.751Z,3.10
2017-12-16T10:02:16.246Z,3.10
2017-12-16T10:04:43.684Z,3.10
2017-12-16T10:07:11.120Z,3.10
2017-12-16T10:09:39.337Z,3.20
2017-12-16T10:12:06.774Z,3.20
2017-12-16T10:14:34.237Z,3.30
2017-12-16T10:17:03.685Z,3.30
2017-12-16T10:19:31.145Z,3.30
2017-12-16T10:21:58.817Z,3.30
2017-12-16T10:24:27.222Z,3.40
2017-12-16T10:26:54.657Z,3.40
2017-12-16T10:29:23.852Z,3.40
2017-12-16T10:31:52.068Z,3.40
2017-12-16T10:34:20.775Z,3.40
2017-12-16T10:36:50.688Z,3.40
2017-12-16T10:39:18.122Z,3.50
2017-12-16T10:41:45.553Z,3.50
2017-12-16T10:44:15.001Z,3.50
2017-12-16T10:46:42.461Z,3.50
2017-12-16T10:49:09.901Z,3.50
2017-12-16T10:51:38.156Z,3.60
2017-12-16T10:54:14.553Z,3.60
2017-12-16T10:56:42.023Z,3.60
2017-12-16T10:59:09.472Z,3.70
2017-12-16T11:01:36.922Z,3.70
2017-12-16T11:04:04.490Z,3.70
2017-12-16T11:06:31.921Z,3.70
2017-12-16T11:08:59.494Z,3.70
2017-12-16T11:11:26.946Z,3.70
2017-12-16T11:13:54.384Z,3.70
2017-12-16T11:16:22.656Z,3.80
2017-12-16T11:18:50.890Z,3.70
2017-12-16T11:21:18.585Z,3.70
2017-12-16T11:23:46.135Z,3.70
2017-12-16T11:26:13.574Z,3.70
2017-12-16T11:28:44.134Z,3.70
2017-12-16T11:31:12.402Z,3.70
2017-12-16T11:33:43.739Z,3.80
2017-12-16T11:36:11.176Z,3.70
2017-12-16T11:38:38.628Z,3.80
2017-12-16T11:41:06.141Z,3.80
2017-12-16T11:43:34.383Z,3.90
2017-12-16T11:46:01.904Z,3.90
2017-12-16T11:48:29.340Z,3.90
2017-12-16T11:50:56.811Z,3.90
2017-12-16T11:53:24.264Z,3.90
2017-12-16T11:55:51.732Z,3.90
2017-12-16T11:58:19.168Z,3.90
2017-12-16T12:00:46.601Z,3.90
2017-12-16T12:03:14.129Z,4.00
2017-12-16T12:05:41.593Z,4.00
2017-12-16T12:08:09.033Z,4.00
2017-12-16T12:10:36.592Z,4.00
2017-12-16T12:13:04.044Z,4.10
2017-12-16T12:15:31.489Z,4.10
2017-12-16T12:17:58.993Z,4.10
2017-12-16T12:20:26.632Z,4.20
2017-12-16T12:22:54.126Z,4.20
2017-12-16T12:25:21.563Z,4.30
2017-12-16T12:27:49.016Z,4.30
2017-12-16T12:30:16.455Z,4.40
2017-12-16T12:32:43.999Z,4.40
2017-12-16T12:35:11.428Z,4.30
2017-12-16T12:37:39.639Z,4.40
2017-12-16T12:40:07.310Z,4.40
2017-12-16T12:42:34.751Z,4.40
2017-12-16T12:45:02.225Z,4.40
2017-12-16T12:47:29.666Z,4.40
2017-12-16T12:49:57.175Z,4.40
2017-12-16T12:52:24.605Z,4.30
2017-12-16T12:54:52.069Z,4.30
2017-12-16T12:57:19.504Z,4.20
2017-12-16T12:59:47.015Z,4.20
2017-12-16T13:02:14.448Z,4.30
2017-12-16T13:04:41.913Z,4.30
2017-12-16T13:07:09.356Z,4.30
2017-12-16T13:09:36.820Z,4.30
2017-12-16T13:12:04.281Z,4.30
2017-12-16T13:14:32.161Z,4.30
2017-12-16T13:16:59.600Z,4.30
2017-12-16T13:19:27.045Z,4.30
2017-12-16T13:21:54.675Z,4.30
2017-12-16T13:24:22.405Z,4.30
2017-12-16T13:32:31.333Z,4.40
2017-12-16T13:34:58.774Z,4.40
2017-12-16T13:37:26.345Z,4.40
2017-12-16T13:39:53.783Z,4.40
2017-12-16T13:42:21.254Z,4.40
2017-12-16T13:44:48.717Z,4.40
2017-12-16T13:47:16.240Z,4.40
2017-12-16T13:49:43.685Z,4.30
2017-12-16T13:52:11.890Z,4.30
2017-12-16T13:54:51.420Z,4.30
2017-12-16T13:57:18.863Z,4.30
2017-12-16T13:59:47.223Z,4.20
2017-12-16T14:05:11.545Z,4.20
2017-12-16T14:07:39.747Z,4.20
2017-12-16T14:10:07.181Z,4.20
2017-12-16T14:12:35.413Z,4.10
2017-12-16T14:15:02.858Z,4.10
2017-12-16T14:17:30.288Z,4.10
2017-12-16T14:19:57.761Z,4.10
2017-12-16T14:22:26.904Z,4.10
2017-12-16T14:24:54.638Z,4.00
2017-12-16T14:27:22.078Z,4.00
2017-12-16T14:29:49.679Z,4.00
2017-12-16T14:32:17.120Z,4.00
2017-12-16T14:34:49.433Z,4.00
2017-12-16T14:37:17.642Z,3.90
2017-12-16T14:39:45.153Z,3.90
2017-12-16T14:42:12.610Z,3.90
2017-12-16T14:44:40.134Z,3.90
2017-12-16T14:47:07.760Z,3.90
2017-12-16T14:49:35.222Z,3.90
2017-12-16T14:52:02.669Z,3.90
2017-12-16T14:54:30.889Z,3.90
2017-12-16T14:56:58.342Z,3.90
2017-12-16T14:59:25.859Z,3.90
2017-12-16T15:01:54.056Z,3.90
2017-12-16T15:04:38.453Z,3.90
2017-12-16T15:07:05.889Z,3.80
2017-12-16T15:09:33.405Z,3.80
2017-12-16T15:12:01.608Z,3.80
2017-12-16T15:14:29.172Z,3.80
2017-12-16T15:16:56.603Z,3.80
2017-12-16T15:19:36.779Z,3.80
2017-12-16T15:22:04.220Z,3.70
2017-12-16T15:24:32.126Z,3.80
2017-12-16T15:26:59.565Z,3.70
2017-12-16T15:29:27.057Z,3.70
2017-12-16T15:31:54.764Z,3.70
2017-12-16T15:34:22.233Z,3.70
2017-12-16T15:36:49.721Z,3.70
2017-12-16T15:39:17.184Z,3.70
2017-12-16T15:41:44.623Z,3.70
2017-12-16T15:44:12.230Z,3.60
2017-12-16T15:46:40.060Z,3.60
2017-12-16T15:49:07.497Z,3.50
2017-12-16T15:51:34.923Z,3.50
2017-12-16T15:54:03.275Z,3.30
2017-12-16T15:56:30.710Z,3.30
2017-12-16T15:58:58.186Z,3.20
2017-12-16T16:01:25.623Z,3.10
2017-12-16T16:03:53.082Z,3.10
2017-12-16T16:06:20.518Z,3.00
2017-12-16T16:08:47.976Z,3.00
2017-12-16T16:11:15.417Z,2.90
2017-12-16T16:13:42.969Z,2.90
2017-12-16T16:16:11.172Z,2.80
2017-12-16T16:18:38.610Z,2.70
2017-12-16T16:21:10.501Z,2.70
2017-12-16T16:23:37.988Z,2.70
2017-12-16T16:26:05.457Z,2.60
2017-12-16T16:28:33.837Z,2.60
2017-12-16T16:31:01.758Z,2.60
2017-12-16T16:33:29.332Z,2.60
2017-12-16T16:35:56.958Z,2.60
2017-12-16T16:38:26.143Z,2.60
2017-12-16T16:40:54.418Z,2.60
2017-12-16T16:43:22.666Z,2.60
2017-12-16T16:45:50.191Z,2.60
2017-12-16T16:48:17.933Z,2.60
2017-12-16T16:50:45.452Z,2.50
2017-12-16T16:53:12.903Z,2.60
2017-12-16T16:55:40.467Z,2.60
2017-12-16T16:58:07.933Z,2.50
2017-12-16T17:00:35.437Z,2.50
2017-12-16T17:03:02.907Z,2.50
2017-12-16T17:05:34.106Z,2.60
2017-12-16T17:08:02.311Z,2.60
2017-12-16T17:10:29.787Z,2.50
2017-12-16T17:12:57.273Z,2.60
2017-12-16T17:15:24.738Z,2.60
2017-12-16T17:17:52.231Z,2.60
2017-12-16T17:20:20.692Z,2.60
2017-12-16T17:22:49.293Z,2.60
2017-12-16T17:25:16.738Z,2.60
2017-12-16T17:27:44.956Z,2.60
2017-12-16T17:30:12.438Z,2.60
2017-12-16T17:32:39.868Z,2.70
2017-12-16T17:35:07.459Z,2.70
2017-12-16T17:37:40.985Z,2.70
2017-12-16T17:40:14.358Z,2.70
2017-12-16T17:42:41.796Z,2.70
2017-12-16T17:45:09.249Z,2.70
2017-12-16T17:47:36.715Z,2.70
2017-12-16T17:50:04.193Z,2.70
2017-12-16T17:52:31.652Z,2.70
2017-12-16T17:54:59.133Z,2.70
2017-12-16T17:57:40.128Z,2.70
2017-12-16T18:00:07.761Z,2.60
2017-12-16T18:02:35.998Z,2.60
2017-12-16T18:05:03.442Z,2.60
2017-12-16T18:07:31.670Z,2.60
2017-12-16T18:09:59.123Z,2.60
2017-12-16T18:12:26.602Z,2.60
2017-12-16T18:14:54.841Z,2.60
2017-12-16T18:17:22.548Z,2.60
2017-12-16T18:19:50.062Z,2.60
2017-12-16T18:22:17.762Z,2.60
2017-12-16T18:24:45.985Z,2.60
2017-12-16T18:27:13.439Z,2.60
2017-12-16T18:29:40.923Z,2.60
2017-12-16T18:32:08.518Z,2.60
2017-12-16T18:34:36.226Z,2.60
2017-12-16T18:37:05.662Z,2.60
2017-12-16T18:39:33.144Z,2.60
2017-12-16T18:42:01.336Z,2.60
2017-12-16T18:44:28.790Z,2.50
2017-12-16T18:46:56.256Z,2.60
2017-12-16T18:49:49.767Z,2.60
2017-12-16T18:52:17.196Z,2.50
2017-12-16T18:54:44.641Z,2.50
2017-12-16T18:57:12.113Z,2.50
2017-12-16T18:59:39.550Z,2.50
2017-12-16T19:02:07.021Z,2.50
2017-12-16T19:04:34.482Z,2.60
2017-12-16T19:07:02.041Z,2.60
2017-12-16T19:09:29.490Z,2.60
2017-12-16T19:11:57.923Z,2.60
2017-12-16T19:14:25.395Z,2.60
2017-12-16T19:16:53.648Z,2.60
2017-12-16T19:19:21.097Z,2.60
2017-12-16T19:21:49.693Z,2.60
2017-12-16T19:24:17.237Z,2.60
2017-12-16T19:26:44.693Z,2.60
2017-12-16T19:29:12.146Z,2.60
2017-12-16T19:31:39.649Z,2.60
2017-12-16T19:34:08.187Z,2.60
2017-12-16T19:36:37.648Z,2.50
2017-12-16T19:39:05.175Z,2.60
2017-12-16T19:41:33.877Z,2.60
2017-12-16T19:44:01.379Z,2.50
2017-12-16T19:46:29.723Z,2.60
2017-12-16T19:48:57.437Z,2.50
2017-12-16T19:51:25.876Z,2.60
2017-12-16T19:53:53.388Z,2.60
2017-12-16T19:56:20.940Z,2.60
2017-12-16T19:58:48.481Z,2.60
2017-12-16T20:01:16.113Z,2.50
2017-12-16T20:03:49.679Z,2.50
2017-12-16T20:06:18.149Z,2.60
2017-12-16T20:08:46.491Z,2.60
2017-12-16T20:11:14.026Z,2.60
2017-12-16T20:13:41.599Z,2.60
2017-12-16T20:16:09.122Z,2.60
2017-12-16T20:18:37.461Z,2.60
2017-12-16T20:21:05.195Z,2.60
2017-12-16T20:23:32.918Z,2.60
2017-12-16T20:26:00.410Z,2.50
2017-12-16T20:28:27.908Z,2.50
2017-12-16T20:30:55.379Z,2.50
2017-12-16T20:33:22.852Z,2.50
2017-12-16T20:35:50.300Z,2.50
2017-12-16T20:38:17.836Z,2.50
2017-12-16T20:40:45.838Z,2.50
2017-12-16T20:43:18.011Z,2.60
2017-12-16T20:45:45.481Z,2.50
2017-12-16T20:48:13.741Z,2.50
2017-12-16T20:50:41.156Z,2.50
2017-12-16T20:53:08.632Z,2.50
2017-12-16T20:55:41.013Z,2.50
2017-12-16T20:58:17.569Z,2.50
2017-12-16T21:00:45.502Z,2.50
2017-12-16T21:03:12.965Z,2.50
2017-12-16T21:05:40.393Z,2.50
2017-12-16T21:08:08.632Z,2.50
2017-12-16T21:10:36.108Z,2.50
2017-12-16T21:13:03.561Z,2.50
2017-12-16T21:15:30.999Z,2.50
2017-12-16T21:17:58.789Z,2.50
2017-12-16T21:20:26.244Z,2.50
2017-12-16T21:22:53.802Z,2.50
2017-12-16T21:25:22.181Z,2.50
2017-12-16T21:27:49.664Z,2.50
2017-12-16T21:30:17.867Z,2.40
2017-12-16T21:32:45.334Z,2.40
2017-12-16T21:35:12.778Z,2.40
2017-12-16T21:37:40.326Z,2.40
2017-12-16T21:40:07.769Z,2.30
2017-12-16T21:42:35.212Z,2.30
2017-12-16T21:45:02.757Z,2.20
2017-12-16T21:47:30.206Z,2.20
2017-12-16T21:49:57.680Z,2.10
2017-12-16T21:52:25.125Z,2.10
2017-12-16T21:54:52.718Z,2.10
2017-12-16T21:57:20.926Z,2.10
2017-12-16T21:59:48.386Z,2.10
2017-12-16T22:02:15.825Z,2.10
2017-12-16T22:04:44.119Z,2.10
2017-12-16T22:07:11.568Z,2.00
2017-12-16T22:09:44.154Z,2.10
2017-12-16T22:12:11.593Z,2.10
2017-12-16T22:14:39.931Z,2.00
2017-12-16T22:17:07.412Z,2.00
2017-12-16T22:19:35.622Z,2.00
2017-12-16T22:22:03.072Z,2.00
2017-12-16T22:24:30.537Z,2.00
2017-12-16T22:26:57.977Z,2.00
2017-12-16T22:32:04.342Z,2.00
2017-12-16T22:34:31.805Z,1.90
2017-12-16T22:37:00.010Z,2.00
2017-12-16T22:39:27.473Z,2.00
2017-12-16T22:41:54.931Z,2.00
2017-12-16T22:44:22.358Z,2.00
2017-12-16T22:46:50.756Z,2.00
2017-12-16T22:52:10.937Z,2.00
2017-12-16T22:54:40.369Z,2.00
2017-12-16T22:57:07.810Z,2.00
2017-12-16T22:59:36.037Z,2.00
2017-12-16T23:02:03.592Z,2.00
2017-12-16T23:04:31.028Z,2.00
2017-12-16T23:06:59.280Z,2.00
2017-12-16T23:09:26.761Z,2.00
2017-12-16T23:11:54.202Z,2.00
2017-12-16T23:14:21.628Z,2.00
2017-12-16T23:16:49.092Z,2.10
2017-12-16T23:19:17.291Z,2.10
2017-12-16T23:21:44.950Z,2.10
2017-12-16T23:24:20.319Z,2.10
2017-12-16T23:26:47.785Z,2.10
2017-12-16T23:29:15.220Z,2.10
2017-12-16T23:31:42.733Z,2.10
2017-12-16T23:34:10.167Z,2.10
2017-12-16T23:36:37.630Z,2.10
2017-12-16T23:39:05.233Z,2.10
2017-12-16T23:41:44.249Z,2.10
2017-12-16T23:44:11.689Z,2.10
2017-12-16T23:46:39.149Z,2.10
2017-12-16T23:49:06.630Z,2.10
2017-12-16T23:57:28.859Z,2.10
2017-12-16T23:59:56.346Z,2.10
